createdAt,value
2019-06-19T00:01:37.292Z,20.22
2019-06-19T00:04:05.892Z,20.20
2019-06-19T00:06:34.495Z,20.16
2019-06-19T00:09:05.054Z,20.20
2019-06-19T00:11:33.729Z,20.33
2019-06-19T00:14:02.829Z,20.26
2019-06-19T00:16:32.144Z,20.27
2019-06-19T00:19:02.688Z,20.29
2019-06-19T00:21:33.213Z,20.19
2019-06-19T00:24:02.620Z,20.27
2019-06-19T00:26:32.837Z,20.30
2019-06-19T00:29:02.648Z,20.30
2019-06-19T00:31:31.562Z,20.35
2019-06-19T00:34:01.818Z,20.21
2019-06-19T00:36:31.509Z,20.08
2019-06-19T00:39:01.282Z,19.95
2019-06-19T00:41:30.855Z,19.90
2019-06-19T00:44:01.380Z,19.96
2019-06-19T00:46:30.580Z,20.01
2019-06-19T00:49:01.084Z,20.00
2019-06-19T00:51:31.218Z,19.95
2019-06-19T00:54:01.751Z,19.90
2019-06-19T00:56:35.433Z,19.86
2019-06-19T00:59:04.119Z,19.92
2019-06-19T01:01:32.789Z,19.89
2019-06-19T01:04:01.826Z,19.81
2019-06-19T01:06:30.974Z,19.68
2019-06-19T01:09:00.753Z,19.73
2019-06-19T01:11:31.537Z,19.61
2019-06-19T01:14:01.111Z,19.54
2019-06-19T01:16:31.744Z,19.50
2019-06-19T01:19:00.780Z,19.58
2019-06-19T01:21:31.688Z,19.56
2019-06-19T01:24:02.000Z,19.55
2019-06-19T01:26:31.419Z,19.50
2019-06-19T01:29:02.074Z,19.60
2019-06-19T01:31:30.994Z,19.57
2019-06-19T01:34:01.005Z,19.60
2019-06-19T01:36:31.351Z,19.46
2019-06-19T01:39:00.704Z,19.52
2019-06-19T01:41:31.970Z,19.46
2019-06-19T01:44:01.309Z,19.51
2019-06-19T01:46:31.963Z,19.37
2019-06-19T01:49:01.066Z,19.38
2019-06-19T01:51:31.207Z,19.43
2019-06-19T01:54:21.793Z,19.33
2019-06-19T01:56:51.755Z,19.37
2019-06-19T01:59:21.333Z,19.31
2019-06-19T02:01:52.049Z,19.35
2019-06-19T02:04:20.901Z,19.38
2019-06-19T02:06:52.164Z,19.38
2019-06-19T02:09:21.971Z,19.36
2019-06-19T02:11:50.960Z,19.26
2019-06-19T02:14:21.397Z,19.33
2019-06-19T02:16:52.375Z,19.36
2019-06-19T02:19:23.682Z,19.32
2019-06-19T02:21:51.077Z,19.22
2019-06-19T02:24:20.649Z,19.23
2019-06-19T02:26:51.006Z,19.24
2019-06-19T02:29:20.961Z,19.16
2019-06-19T02:31:53.133Z,19.10
2019-06-19T02:34:21.804Z,19.11
2019-06-19T02:36:51.797Z,19.03
2019-06-19T02:39:21.877Z,19.19
2019-06-19T02:41:50.977Z,19.04
2019-06-19T02:44:19.681Z,18.94
2019-06-19T02:46:48.774Z,18.92
2019-06-19T02:49:17.432Z,18.93
2019-06-19T02:51:46.045Z,18.95
2019-06-19T02:54:14.739Z,18.84
2019-06-19T02:56:43.447Z,18.91
2019-06-19T02:59:12.145Z,19.05
2019-06-19T03:01:40.765Z,18.79
2019-06-19T03:04:09.938Z,18.71
2019-06-19T03:06:38.558Z,18.75
2019-06-19T03:09:07.889Z,18.57
2019-06-19T03:11:36.506Z,18.63
2019-06-19T03:14:05.249Z,18.63
2019-06-19T03:16:33.864Z,18.74
2019-06-19T03:19:02.491Z,18.72
2019-06-19T03:21:31.084Z,18.45
2019-06-19T03:23:59.693Z,18.40
2019-06-19T03:26:28.322Z,18.41
2019-06-19T03:28:56.933Z,18.38
2019-06-19T03:31:35.142Z,18.54
2019-06-19T03:33:55.985Z,18.40
2019-06-19T03:36:24.682Z,18.35
2019-06-19T03:38:53.363Z,18.40
2019-06-19T03:41:22.062Z,18.40
2019-06-19T03:43:50.677Z,18.35
2019-06-19T03:46:19.657Z,18.35
2019-06-19T03:48:48.261Z,18.43
2019-06-19T03:51:16.895Z,18.43
2019-06-19T03:53:45.528Z,18.42
2019-06-19T03:56:14.220Z,18.44
2019-06-19T03:58:42.908Z,18.52
2019-06-19T04:01:11.604Z,18.63
2019-06-19T04:03:40.206Z,18.63
2019-06-19T04:06:08.841Z,18.72
2019-06-19T04:08:37.466Z,18.77
2019-06-19T04:11:06.083Z,18.64
2019-06-19T04:13:34.753Z,18.71
2019-06-19T04:16:04.207Z,18.71
2019-06-19T04:18:32.836Z,18.82
2019-06-19T04:21:01.453Z,18.82
2019-06-19T04:23:30.060Z,18.91
2019-06-19T04:25:58.698Z,19.04
2019-06-19T04:28:35.944Z,19.18
2019-06-19T04:31:04.673Z,19.36
2019-06-19T04:33:33.319Z,19.39
2019-06-19T04:36:02.090Z,19.48
2019-06-19T04:38:31.634Z,-143.04
2019-06-19T04:41:00.568Z,-143.04
2019-06-19T04:43:29.259Z,-143.04
2019-06-19T04:45:57.913Z,-143.04
2019-06-19T04:48:26.596Z,-143.04
2019-06-19T04:50:55.215Z,-143.04
2019-06-19T04:53:23.843Z,-143.04
2019-06-19T04:55:52.634Z,-143.04
2019-06-19T04:58:21.313Z,-143.04
2019-06-19T05:00:49.932Z,-143.04
2019-06-19T05:03:18.632Z,-143.04
2019-06-19T05:05:47.272Z,-143.04
2019-06-19T05:08:22.441Z,-143.04
2019-06-19T05:10:51.065Z,-143.04
2019-06-19T05:13:19.682Z,-143.04
2019-06-19T05:15:48.295Z,-143.04
2019-06-19T05:18:16.948Z,-143.04
2019-06-19T05:20:45.580Z,-143.04
2019-06-19T05:23:14.279Z,-143.04
2019-06-19T05:25:42.890Z,-143.04
2019-06-19T05:28:11.512Z,-143.04
2019-06-19T05:30:40.132Z,-143.04
2019-06-19T05:33:08.772Z,-143.04
2019-06-19T05:35:37.375Z,-143.04
2019-06-19T05:38:06.082Z,-143.04
2019-06-19T05:40:34.794Z,-143.04
2019-06-19T05:43:03.428Z,-143.04
2019-06-19T05:45:32.050Z,-143.04
2019-06-19T05:48:00.704Z,-143.04
2019-06-19T05:50:29.452Z,-143.04
2019-06-19T05:52:58.164Z,-143.04
2019-06-19T05:55:26.854Z,-143.04
2019-06-19T05:57:55.458Z,-143.04
2019-06-19T06:00:27.269Z,-143.04
2019-06-19T06:02:55.872Z,-143.04
2019-06-19T06:05:24.491Z,-143.04
2019-06-19T06:07:53.091Z,-143.04
2019-06-19T06:10:21.804Z,-143.04
2019-06-19T06:12:50.494Z,-143.04
2019-06-19T06:15:19.984Z,-143.04
2019-06-19T06:17:48.687Z,-143.04
2019-06-19T06:20:26.772Z,-143.04
2019-06-19T06:22:55.380Z,-143.04
2019-06-19T06:25:24.140Z,-143.04
2019-06-19T06:30:56.623Z,-143.04
2019-06-19T06:33:25.256Z,-143.04
2019-06-19T06:35:53.892Z,-143.04
2019-06-19T06:38:22.515Z,-143.04
2019-06-19T06:40:51.196Z,-143.04
2019-06-19T06:43:19.826Z,-143.04
2019-06-19T06:45:48.443Z,-143.04
2019-06-19T06:48:17.147Z,-143.04
2019-06-19T06:50:45.935Z,-143.04
2019-06-19T06:53:14.627Z,-143.04
2019-06-19T06:55:43.253Z,-143.04
2019-06-19T06:58:11.983Z,-143.04
2019-06-19T07:00:46.401Z,-143.04
2019-06-19T07:03:24.328Z,-143.04
2019-06-19T07:05:45.710Z,-143.04
2019-06-19T07:08:14.432Z,-143.04
2019-06-19T07:10:43.077Z,-143.04
2019-06-19T07:13:11.753Z,-143.04
2019-06-19T07:15:42.481Z,-143.04
2019-06-19T07:18:10.823Z,-143.04
2019-06-19T07:20:39.604Z,-143.04
2019-06-19T07:23:08.233Z,-143.04
2019-06-19T07:25:37.009Z,-143.04
2019-06-19T07:28:05.637Z,-143.04
2019-06-19T07:30:37.364Z,-143.04
2019-06-19T07:33:06.027Z,-143.04
2019-06-19T07:35:34.685Z,-143.04
2019-06-19T07:38:03.351Z,-143.04
2019-06-19T07:40:32.136Z,-143.04
2019-06-19T07:43:00.747Z,-143.04
2019-06-19T07:45:29.348Z,-143.04
2019-06-19T07:47:57.965Z,-143.04
2019-06-19T07:50:26.681Z,-143.04
2019-06-19T07:52:55.437Z,-143.04
2019-06-19T07:55:24.021Z,-143.04
2019-06-19T07:57:52.661Z,-143.04
2019-06-19T08:00:21.449Z,-143.04
2019-06-19T08:02:50.065Z,-143.04
2019-06-19T08:07:46.301Z,-143.04
2019-06-19T08:10:16.595Z,-143.04
2019-06-19T08:12:45.302Z,-143.04
2019-06-19T08:15:14.917Z,-143.04
2019-06-19T08:17:43.526Z,-143.04
2019-06-19T08:20:12.206Z,-143.04
2019-06-19T08:22:40.858Z,-143.04
2019-06-19T08:25:09.681Z,-143.04
2019-06-19T08:27:38.308Z,-143.04
2019-06-19T08:30:07.093Z,-143.04
2019-06-19T08:33:01.930Z,-143.04
2019-06-19T08:35:30.553Z,-143.04
2019-06-19T08:37:59.342Z,-143.04
2019-06-19T08:40:28.204Z,-143.04
2019-06-19T08:42:56.821Z,-143.04
2019-06-19T08:45:25.517Z,-143.04
2019-06-19T08:47:54.222Z,-143.04
2019-06-19T08:50:45.872Z,-143.04
2019-06-19T08:53:37.152Z,-143.04
2019-06-19T08:56:21.043Z,-143.04
2019-06-19T08:59:56.211Z,-143.04
2019-06-19T09:10:02.519Z,-143.04
2019-06-19T09:13:13.215Z,-143.04
2019-06-19T09:15:32.975Z,-143.04
2019-06-19T09:18:01.591Z,-143.04
2019-06-19T09:20:30.289Z,-143.04
2019-06-19T09:22:58.901Z,-143.04
2019-06-19T09:25:27.523Z,-143.04
2019-06-19T09:27:56.165Z,-143.04
2019-06-19T09:30:30.185Z,-143.04
2019-06-19T09:32:58.807Z,-143.04
2019-06-19T09:35:27.420Z,-143.04
2019-06-19T09:37:56.049Z,-143.04
2019-06-19T09:40:24.684Z,-143.04
2019-06-19T09:42:53.309Z,-143.04
2019-06-19T09:45:22.001Z,-143.04
2019-06-19T09:47:50.621Z,-143.04
2019-06-19T09:50:19.313Z,-143.04
2019-06-19T09:52:47.926Z,-143.04
2019-06-19T09:55:16.626Z,-143.04
2019-06-19T09:57:45.251Z,-143.04
2019-06-19T10:00:14.140Z,-143.04
2019-06-19T10:02:42.947Z,-143.04
2019-06-19T10:05:12.270Z,-143.04
2019-06-19T10:07:41.258Z,-143.04
2019-06-19T10:10:10.340Z,-143.04
2019-06-19T10:12:38.947Z,-143.04
2019-06-19T10:15:08.591Z,-143.04
2019-06-19T10:17:37.286Z,-143.04
2019-06-19T10:20:06.302Z,-143.04
2019-06-19T10:22:34.991Z,-143.04
2019-06-19T10:25:03.704Z,-143.04
2019-06-19T10:27:32.361Z,-143.04
2019-06-19T10:30:03.420Z,-143.04
2019-06-19T10:32:32.397Z,-143.04
2019-06-19T10:35:01.163Z,-143.04
2019-06-19T10:37:29.870Z,-143.04
2019-06-19T10:39:58.562Z,-143.04
2019-06-19T10:42:27.245Z,-143.04
2019-06-19T10:44:55.953Z,-143.04
2019-06-19T10:47:24.566Z,-143.04
2019-06-19T10:49:53.212Z,-143.04
2019-06-19T10:52:21.829Z,-143.04
2019-06-19T10:54:50.494Z,-143.04
2019-06-19T10:57:19.102Z,-143.04
2019-06-19T10:59:47.731Z,-143.04
2019-06-19T11:02:16.551Z,-143.04
2019-06-19T11:04:45.261Z,-143.04
2019-06-19T11:07:13.890Z,-143.04
2019-06-19T11:09:42.498Z,-143.04
2019-06-19T11:12:11.168Z,-143.04
2019-06-19T11:14:39.781Z,-143.04
2019-06-19T11:17:08.408Z,-143.04
2019-06-19T11:19:37.029Z,-143.04
2019-06-19T11:22:05.705Z,-143.04
2019-06-19T11:24:34.323Z,-143.04
2019-06-19T11:27:03.079Z,-143.04
2019-06-19T11:29:31.680Z,-143.04
2019-06-19T11:32:00.325Z,-143.04
2019-06-19T11:34:29.029Z,-143.04
2019-06-19T11:36:57.680Z,-143.04
2019-06-19T11:39:26.296Z,-143.04
2019-06-19T11:41:54.923Z,-143.04
2019-06-19T11:44:23.556Z,-143.04
2019-06-19T11:46:52.301Z,-143.04
2019-06-19T11:49:20.924Z,-143.04
2019-06-19T11:51:49.620Z,-143.04
2019-06-19T11:54:18.291Z,-143.04
2019-06-19T11:56:46.889Z,-143.04
2019-06-19T11:59:15.507Z,-143.04
2019-06-19T12:01:44.282Z,-143.04
2019-06-19T12:04:12.975Z,-143.04
2019-06-19T12:06:41.597Z,-143.04
2019-06-19T12:09:10.388Z,-143.04
2019-06-19T12:11:39.074Z,-143.04
2019-06-19T12:14:18.198Z,-143.04
2019-06-19T12:16:38.215Z,-143.04
2019-06-19T12:19:06.901Z,-143.04
2019-06-19T12:21:35.860Z,-143.04
2019-06-19T12:24:04.563Z,-143.04
2019-06-19T12:26:33.208Z,-143.04
2019-06-19T12:29:01.898Z,-143.04
2019-06-19T12:31:30.458Z,-143.04
2019-06-19T12:34:21.221Z,-143.04
2019-06-19T12:36:49.845Z,-143.04
2019-06-19T12:39:18.480Z,-143.04
2019-06-19T12:41:47.209Z,-143.04
2019-06-19T12:44:15.918Z,-143.04
2019-06-19T12:46:44.519Z,-143.04
2019-06-19T12:49:13.271Z,-143.04
2019-06-19T12:51:41.970Z,-143.04
2019-06-19T12:54:10.732Z,-143.04
2019-06-19T12:56:39.301Z,-143.04
2019-06-19T12:59:08.030Z,-143.04
2019-06-19T13:01:36.728Z,-143.04
2019-06-19T13:04:05.412Z,-143.04
2019-06-19T13:06:46.732Z,-143.04
2019-06-19T13:09:05.751Z,-143.04
2019-06-19T13:11:34.384Z,-143.04
2019-06-19T13:14:03.003Z,-143.04
2019-06-19T13:16:31.686Z,-143.04
2019-06-19T13:19:00.274Z,-143.04
2019-06-19T13:21:28.907Z,-143.04
2019-06-19T13:23:57.541Z,-143.04
2019-06-19T13:26:26.303Z,-143.04
2019-06-19T13:28:55.126Z,-143.04
2019-06-19T13:31:23.753Z,-143.04
2019-06-19T13:33:52.401Z,-143.04
2019-06-19T13:36:21.106Z,-143.04
2019-06-19T13:38:49.722Z,-143.04
2019-06-19T13:41:21.662Z,-143.04
2019-06-19T13:43:48.683Z,-143.04
2019-06-19T13:46:17.542Z,-143.04
2019-06-19T13:48:46.182Z,-143.04
2019-06-19T13:51:14.785Z,-143.04
2019-06-19T13:53:43.416Z,-143.04
2019-06-19T13:56:12.056Z,-143.04
2019-06-19T13:58:40.707Z,-143.04
2019-06-19T14:01:09.333Z,-143.04
2019-06-19T14:03:47.239Z,-143.04
2019-06-19T14:06:08.376Z,-143.04
2019-06-19T14:08:37.079Z,-143.04
2019-06-19T14:11:05.787Z,-143.04
2019-06-19T14:13:34.490Z,-143.04
2019-06-19T14:16:03.160Z,-143.04
2019-06-19T14:20:13.609Z,-143.04
2019-06-19T14:22:42.243Z,-143.04
2019-06-19T14:25:11.135Z,-143.04
2019-06-19T14:27:39.767Z,-143.04
2019-06-19T14:30:08.886Z,-143.04
2019-06-19T14:32:37.592Z,-143.04
2019-06-19T14:35:08.121Z,-143.04
2019-06-19T14:37:37.182Z,-143.04
2019-06-19T14:40:06.227Z,-143.04
2019-06-19T14:42:35.050Z,-143.04
2019-06-19T14:45:03.827Z,-143.04
2019-06-19T14:47:32.469Z,-143.04
2019-06-19T14:50:01.085Z,-143.04
2019-06-19T14:52:29.707Z,-143.04
2019-06-19T14:54:58.554Z,-143.04
2019-06-19T14:57:27.229Z,-143.04
2019-06-19T14:59:55.878Z,-143.04
2019-06-19T15:02:24.530Z,-143.04
2019-06-19T15:04:53.248Z,-143.04
2019-06-19T15:07:21.882Z,-143.04
2019-06-19T15:09:50.498Z,-143.04
2019-06-19T15:12:19.126Z,-143.04
2019-06-19T15:14:47.746Z,-143.04
2019-06-19T15:17:16.402Z,-143.04
2019-06-19T15:19:45.071Z,-143.04
2019-06-19T15:22:13.726Z,-143.04
2019-06-19T15:24:42.357Z,-143.04
2019-06-19T15:27:11.087Z,-143.04
2019-06-19T15:29:39.777Z,-143.04
2019-06-19T15:32:08.444Z,-143.04
2019-06-19T15:34:37.060Z,-143.04
2019-06-19T15:37:05.745Z,-143.04
2019-06-19T15:39:34.455Z,-143.04
2019-06-19T15:42:03.219Z,-143.04
2019-06-19T15:44:31.904Z,-143.04
2019-06-19T15:47:00.585Z,-143.04
2019-06-19T15:49:29.218Z,-143.04
2019-06-19T15:51:57.945Z,-143.04
2019-06-19T15:54:26.601Z,-143.04
2019-06-19T15:56:55.235Z,-143.04
2019-06-19T15:59:23.855Z,-143.04
2019-06-19T16:01:52.502Z,-143.04
2019-06-19T16:04:21.236Z,-143.04
2019-06-19T16:06:49.874Z,-143.04
2019-06-19T16:09:18.595Z,-143.04
2019-06-19T16:11:47.298Z,-143.04
2019-06-19T16:14:15.932Z,-143.04
2019-06-19T16:16:44.680Z,-143.04
2019-06-19T16:19:13.409Z,-143.04
2019-06-19T16:21:42.081Z,-143.04
2019-06-19T16:24:10.856Z,-143.04
2019-06-19T16:26:39.649Z,-143.04
2019-06-19T16:29:08.273Z,-143.04
2019-06-19T16:31:36.959Z,-143.04
2019-06-19T16:34:05.689Z,-143.04
2019-06-19T16:36:34.313Z,-143.04
2019-06-19T16:39:02.975Z,-143.04
2019-06-19T16:41:31.566Z,-143.04
2019-06-19T16:44:00.515Z,-143.04
2019-06-19T16:46:29.198Z,-143.04
2019-06-19T16:48:57.823Z,-143.04
2019-06-19T16:51:26.441Z,-143.04
2019-06-19T16:53:55.051Z,-143.04
2019-06-19T16:56:23.739Z,-143.04
2019-06-19T16:58:52.395Z,-143.04
2019-06-19T17:01:21.084Z,-143.04
2019-06-19T17:03:49.674Z,-143.04
2019-06-19T17:06:18.349Z,-143.04
2019-06-19T17:09:00.225Z,-143.04
2019-06-19T17:11:17.451Z,-143.04
2019-06-19T17:13:46.076Z,-143.04
2019-06-19T17:16:14.707Z,-143.04
2019-06-19T17:18:43.436Z,-143.04
2019-06-19T17:21:12.133Z,-143.04
2019-06-19T17:23:40.747Z,-143.04
2019-06-19T17:26:09.537Z,-143.04
2019-06-19T17:28:38.202Z,-143.04
2019-06-19T17:31:06.888Z,-143.04
2019-06-19T17:33:35.522Z,-143.04
2019-06-19T17:36:04.247Z,-143.04
2019-06-19T17:38:32.943Z,-143.04
2019-06-19T17:41:01.837Z,-143.04
2019-06-19T17:43:30.464Z,-143.04
2019-06-19T17:45:59.090Z,-143.04
2019-06-19T17:48:27.819Z,-143.04
2019-06-19T17:50:56.451Z,-143.04
2019-06-19T17:53:25.124Z,-143.04
2019-06-19T17:55:53.836Z,-143.04
2019-06-19T17:58:25.032Z,-143.04
2019-06-19T18:00:52.908Z,-143.04
2019-06-19T18:03:21.617Z,-143.04
2019-06-19T18:05:50.232Z,-143.04
2019-06-19T18:08:18.857Z,-143.04
2019-06-19T18:10:47.512Z,-143.04
2019-06-19T18:13:16.133Z,-143.04
2019-06-19T18:15:44.900Z,-143.04
2019-06-19T18:18:13.662Z,-143.04
2019-06-19T18:20:42.339Z,-143.04
2019-06-19T18:23:11.045Z,-143.04
2019-06-19T18:25:39.758Z,-143.04
2019-06-19T18:28:08.370Z,-143.04
2019-06-19T18:30:37.017Z,-143.04
2019-06-19T18:33:05.635Z,-143.04
2019-06-19T18:35:34.420Z,-143.04
2019-06-19T18:38:03.203Z,-143.04
2019-06-19T18:40:31.858Z,-143.04
2019-06-19T18:43:00.478Z,-143.04
2019-06-19T18:45:29.117Z,-143.04
2019-06-19T18:47:57.788Z,-143.04
2019-06-19T18:50:26.597Z,-143.04
2019-06-19T18:52:55.285Z,-143.04
2019-06-19T18:55:24.054Z,-143.04
2019-06-19T18:57:52.667Z,-143.04
2019-06-19T19:00:22.287Z,-143.04
2019-06-19T19:02:50.967Z,-143.04
2019-06-19T19:05:21.208Z,-143.04
2019-06-19T19:07:49.869Z,-143.04
2019-06-19T19:10:20.069Z,-143.04
2019-06-19T19:12:48.690Z,-143.04
2019-06-19T19:15:19.312Z,-143.04
2019-06-19T19:17:47.913Z,-143.04
2019-06-19T19:20:16.713Z,-143.04
2019-06-19T19:22:45.316Z,-143.04
2019-06-19T19:25:14.020Z,-143.04
2019-06-19T19:27:42.730Z,-143.04
2019-06-19T19:30:11.958Z,-143.04
2019-06-19T19:32:40.557Z,-143.04
2019-06-19T19:35:09.989Z,-143.04
2019-06-19T19:37:38.696Z,-143.04
2019-06-19T19:40:07.952Z,-143.04
2019-06-19T19:42:36.620Z,-143.04
2019-06-19T19:45:06.533Z,-143.04
2019-06-19T19:47:35.214Z,-143.04
2019-06-19T19:50:04.599Z,-143.04
2019-06-19T19:52:33.266Z,-143.04
2019-06-19T19:55:02.167Z,-143.04
2019-06-19T19:57:30.929Z,-143.04
2019-06-19T19:59:59.593Z,-143.04
2019-06-19T20:02:28.328Z,-143.04
2019-06-19T20:04:57.009Z,-143.04
2019-06-19T20:07:25.786Z,-143.04
2019-06-19T20:09:55.769Z,-143.04
2019-06-19T20:12:24.581Z,-143.04
2019-06-19T20:14:53.664Z,-143.04
2019-06-19T20:17:22.385Z,-143.04
2019-06-19T20:19:51.058Z,-143.04
2019-06-19T20:22:19.855Z,-143.04
2019-06-19T20:24:48.608Z,-143.04
2019-06-19T20:27:17.351Z,-143.04
2019-06-19T20:29:45.975Z,-143.04
2019-06-19T20:32:14.661Z,-143.04
2019-06-19T20:34:43.525Z,-143.04
2019-06-19T20:37:12.750Z,-143.04
2019-06-19T20:39:41.795Z,-143.04
2019-06-19T20:42:10.553Z,-143.04
2019-06-19T20:44:39.272Z,-143.04
2019-06-19T20:47:21.253Z,-143.04
2019-06-19T20:49:38.415Z,-143.04
2019-06-19T20:52:07.218Z,-143.04
2019-06-19T20:54:35.892Z,-143.04
2019-06-19T20:57:04.818Z,-143.04
2019-06-19T20:59:35.847Z,-143.04
2019-06-19T21:02:03.985Z,-143.04
2019-06-19T21:04:35.247Z,-143.04
2019-06-19T21:07:03.983Z,-143.04
2019-06-19T21:09:32.843Z,-143.04
2019-06-19T21:12:01.581Z,-143.04
2019-06-19T21:14:30.379Z,-143.04
2019-06-19T21:17:24.740Z,-143.04
2019-06-19T21:19:53.416Z,-143.04
2019-06-19T21:22:22.540Z,-143.04
2019-06-19T21:24:51.730Z,-143.04
2019-06-19T21:27:22.788Z,-143.04
2019-06-19T21:29:51.535Z,-143.04
2019-06-19T21:32:20.269Z,-143.04
2019-06-19T21:34:49.181Z,-143.04
2019-06-19T21:37:17.945Z,-143.04
2019-06-19T21:39:47.059Z,-143.04
2019-06-19T21:42:15.701Z,-143.04
2019-06-19T21:44:44.484Z,-143.04
2019-06-19T21:47:13.143Z,-143.04
2019-06-19T21:49:41.964Z,-143.04
2019-06-19T21:52:26.156Z,-143.04
2019-06-19T21:54:41.478Z,-143.04
2019-06-19T21:57:10.206Z,-143.04
2019-06-19T21:59:38.976Z,-143.04
2019-06-19T22:02:07.818Z,-143.04
2019-06-19T22:04:36.707Z,-143.04
2019-06-19T22:07:05.455Z,-143.04
2019-06-19T22:09:34.317Z,-143.04
2019-06-19T22:12:04.393Z,-143.04
2019-06-19T22:14:33.066Z,-143.04
2019-06-19T22:17:01.831Z,-143.04
2019-06-19T22:19:30.497Z,-143.04
2019-06-19T22:21:59.380Z,-143.04
2019-06-19T22:24:28.087Z,-143.04
2019-06-19T22:26:56.861Z,-143.04
2019-06-19T22:29:25.615Z,-143.04
2019-06-19T22:31:54.292Z,-143.04
2019-06-19T22:34:22.970Z,-143.04
2019-06-19T22:36:52.046Z,-143.04
2019-06-19T22:39:20.994Z,-143.04
2019-06-19T22:41:49.686Z,-143.04
2019-06-19T22:44:18.640Z,-143.04
2019-06-19T22:46:47.519Z,-143.04
2019-06-19T22:49:16.225Z,-143.04
2019-06-19T22:51:45.815Z,-143.04
2019-06-19T22:54:14.725Z,-143.04
2019-06-19T22:56:43.465Z,-143.04
2019-06-19T22:59:12.136Z,-143.04
2019-06-19T23:01:51.265Z,-143.04
2019-06-19T23:04:20.023Z,-143.04
2019-06-19T23:06:49.019Z,-143.04
2019-06-19T23:09:17.671Z,-143.04
2019-06-19T23:11:46.383Z,-143.04
2019-06-19T23:14:15.321Z,-143.04
2019-06-19T23:16:44.360Z,-143.04
2019-06-19T23:19:13.099Z,-143.04
2019-06-19T23:21:42.616Z,-143.04
2019-06-19T23:24:13.363Z,-143.04
2019-06-19T23:26:42.254Z,-143.04
2019-06-19T23:29:11.360Z,-143.04
2019-06-19T23:31:40.793Z,-143.04
2019-06-19T23:34:09.549Z,-143.04
2019-06-19T23:36:38.318Z,-143.04
2019-06-19T23:39:07.597Z,-143.04
2019-06-19T23:41:36.439Z,-143.04
2019-06-19T23:44:05.333Z,-143.04
2019-06-19T23:46:34.101Z,-143.04
2019-06-19T23:49:02.747Z,-143.04
2019-06-19T23:51:31.422Z,-143.04
2019-06-19T23:54:00.112Z,-143.04
2019-06-19T23:56:28.889Z,-143.04
2019-06-19T23:58:57.575Z,-143.04
